sensor_id;sensor_type;location;lat;lon;timestamp;pressure;altitude;pressure_sealevel;temperature;humidity
30598;BME280;17365;48.878;8.334;2022-09-30T00:01:34;99205.09;;;10.75;100.00
30598;BME280;17365;48.878;8.334;2022-09-30T00:04:00;99193.88;;;10.76;100.00
30598;BME280;17365;48.878;8.334;2022-09-30T00:06:26;99208.53;;;10.79;100.00
30598;BME280;17365;48.878;8.334;2022-09-30T00:08:52;99203.81;;;10.44;100.00
30598;BME280;17365;48.878;8.334;2022-09-30T00:11:21;99200.91;;;10.67;100.00
30598;BME280;17365;48.878;8.334;2022-09-30T00:13:48;99201.84;;;10.60;100.00
30598;BME280;17365;48.878;8.334;2022-09-30T00:16:15;99199.25;;;10.61;100.00
30598;BME280;17365;48.878;8.334;2022-09-30T00:18:42;99196.69;;;10.58;100.00
30598;BME280;17365;48.878;8.334;2022-09-30T00:21:08;99201.81;;;10.63;100.00
30598;BME280;17365;48.878;8.334;2022-09-30T00:23:35;99199.25;;;10.60;100.00
30598;BME280;17365;48.878;8.334;2022-09-30T00:26:05;99199.25;;;10.61;100.00
30598;BME280;17365;48.878;8.334;2022-09-30T00:28:31;99198.47;;;10.53;100.00
30598;BME280;17365;48.878;8.334;2022-09-30T00:30:58;99206.22;;;10.58;100.00
30598;BME280;17365;48.878;8.334;2022-09-30T00:33:24;99210.47;;;10.65;100.00
30598;BME280;17365;48.878;8.334;2022-09-30T00:35:49;99210.44;;;10.66;100.00
30598;BME280;17365;48.878;8.334;2022-09-30T00:38:14;99217.28;;;10.70;100.00
30598;BME280;17365;48.878;8.334;2022-09-30T00:40:40;99216.59;;;10.56;100.00
30598;BME280;17365;48.878;8.334;2022-09-30T00:43:17;99223.59;;;10.49;100.00
30598;BME280;17365;48.878;8.334;2022-09-30T00:45:50;99228.16;;;10.29;100.00
30598;BME280;17365;48.878;8.334;2022-09-30T00:48:20;99227.13;;;10.45;100.00
30598;BME280;17365;48.878;8.334;2022-09-30T00:50:49;99227.06;;;10.48;100.00
30598;BME280;17365;48.878;8.334;2022-09-30T00:54:20;99223.78;;;10.34;100.00
30598;BME280;17365;48.878;8.334;2022-09-30T00:56:20;99229.25;;;10.05;100.00
30598;BME280;17365;48.878;8.334;2022-09-30T00:58:54;99219.59;;;10.24;100.00
30598;BME280;17365;48.878;8.334;2022-09-30T01:01:21;99223.28;;;9.99;100.00
30598;BME280;17365;48.878;8.334;2022-09-30T01:04:09;99221.56;;;9.95;100.00
30598;BME280;17365;48.878;8.334;2022-09-30T01:06:35;99222.53;;;9.87;100.00
30598;BME280;17365;48.878;8.334;2022-09-30T01:09:00;99233.75;;;9.88;100.00
30598;BME280;17365;48.878;8.334;2022-09-30T01:11:26;99225.88;;;9.99;100.00
30598;BME280;17365;48.878;8.334;2022-09-30T01:13:55;99233.66;;;9.96;100.00
30598;BME280;17365;48.878;8.334;2022-09-30T01:33:01;99245.31;;;9.46;100.00
30598;BME280;17365;48.878;8.334;2022-09-30T01:36:01;99242.78;;;9.38;100.00
30598;BME280;17365;48.878;8.334;2022-09-30T01:39:24;99255.03;;;9.18;100.00
30598;BME280;17365;48.878;8.334;2022-09-30T01:45:05;99242.94;;;9.20;100.00
30598;BME280;17365;48.878;8.334;2022-09-30T01:47:35;99243.63;;;9.39;100.00
30598;BME280;17365;48.878;8.334;2022-09-30T01:50:17;99246.34;;;9.23;100.00
30598;BME280;17365;48.878;8.334;2022-09-30T01:52:55;99255.75;;;9.37;100.00
30598;BME280;17365;48.878;8.334;2022-09-30T01:55:33;99265.50;;;8.93;100.00
30598;BME280;17365;48.878;8.334;2022-09-30T01:58:10;99271.31;;;9.33;100.00
30598;BME280;17365;48.878;8.334;2022-09-30T02:00:39;99277.28;;;9.42;100.00
30598;BME280;17365;48.878;8.334;2022-09-30T02:03:24;99277.28;;;9.43;100.00
30598;BME280;17365;48.878;8.334;2022-09-30T02:06:02;99276.38;;;9.46;100.00
30598;BME280;17365;48.878;8.334;2022-09-30T02:08:37;99282.38;;;9.54;100.00
30598;BME280;17365;48.878;8.334;2022-09-30T02:11:12;99279.19;;;9.12;100.00
30598;BME280;17365;48.878;8.334;2022-09-30T02:13:46;99274.84;;;9.19;100.00
30598;BME280;17365;48.878;8.334;2022-09-30T02:16:20;99273.84;;;9.38;100.00
30598;BME280;17365;48.878;8.334;2022-09-30T02:19:11;99276.38;;;9.46;100.00
30598;BME280;17365;48.878;8.334;2022-09-30T02:21:38;99284.09;;;9.53;100.00
30598;BME280;17365;48.878;8.334;2022-09-30T02:24:08;99274.53;;;9.63;100.00
30598;BME280;17365;48.878;8.334;2022-09-30T02:26:40;99288.34;;;9.65;100.00
30598;BME280;17365;48.878;8.334;2022-09-30T02:29:10;99296.03;;;9.71;100.00
30598;BME280;17365;48.878;8.334;2022-09-30T02:31:39;99288.34;;;9.60;100.00
30598;BME280;17365;48.878;8.334;2022-09-30T02:34:15;99291.81;;;9.61;100.00
30598;BME280;17365;48.878;8.334;2022-09-30T02:36:50;99290.88;;;9.70;100.00
30598;BME280;17365;48.878;8.334;2022-09-30T02:39:25;99290.84;;;9.74;100.00
30598;BME280;17365;48.878;8.334;2022-09-30T02:42:03;99291.75;;;9.69;100.00
30598;BME280;17365;48.878;8.334;2022-09-30T02:44:32;99297.88;;;9.58;100.00
30598;BME280;17365;48.878;8.334;2022-09-30T02:47:33;99298.81;;;9.45;100.00
30598;BME280;17365;48.878;8.334;2022-09-30T02:50:15;99297.13;;;9.38;100.00
30598;BME280;17365;48.878;8.334;2022-09-30T02:53:01;99296.13;;;9.59;100.00
30598;BME280;17365;48.878;8.334;2022-09-30T02:58:29;99292.63;;;9.66;100.00
30598;BME280;17365;48.878;8.334;2022-09-30T03:00:55;99292.59;;;9.69;100.00
30598;BME280;17365;48.878;8.334;2022-09-30T03:03:26;99295.19;;;9.69;100.00
30598;BME280;17365;48.878;8.334;2022-09-30T03:05:52;99296.06;;;9.68;100.00
30598;BME280;17365;48.878;8.334;2022-09-30T03:08:18;99308.13;;;9.75;100.00
30598;BME280;17365;48.878;8.334;2022-09-30T03:10:43;99302.06;;;9.75;100.00
30598;BME280;17365;48.878;8.334;2022-09-30T03:13:45;99309.00;;;9.71;100.00
30598;BME280;17365;48.878;8.334;2022-09-30T03:16:51;99303.78;;;9.76;100.00
30598;BME280;17365;48.878;8.334;2022-09-30T03:27:44;99308.16;;;9.69;100.00
30598;BME280;17365;48.878;8.334;2022-09-30T03:30:15;99311.59;;;9.74;100.00
30598;BME280;17365;48.878;8.334;2022-09-30T03:33:03;99304.78;;;9.56;100.00
30598;BME280;17365;48.878;8.334;2022-09-30T03:36:00;99316.09;;;9.45;100.00
30598;BME280;17365;48.878;8.334;2022-09-30T03:41:42;99310.72;;;9.72;100.00
30598;BME280;17365;48.878;8.334;2022-09-30T03:44:14;99314.31;;;9.53;100.00
30598;BME280;17365;48.878;8.334;2022-09-30T03:46:44;99313.34;;;9.66;100.00
30598;BME280;17365;48.878;8.334;2022-09-30T03:49:18;99313.28;;;9.75;100.00
30598;BME280;17365;48.878;8.334;2022-09-30T03:51:46;99322.06;;;9.54;100.00
30598;BME280;17365;48.878;8.334;2022-09-30T03:54:12;99322.06;;;9.56;100.00
30598;BME280;17365;48.878;8.334;2022-09-30T03:56:38;99326.25;;;9.71;100.00
30598;BME280;17365;48.878;8.334;2022-09-30T03:59:21;99326.16;;;9.84;100.00
30598;BME280;17365;48.878;8.334;2022-09-30T04:01:47;99327.94;;;9.78;100.00
30598;BME280;17365;48.878;8.334;2022-09-30T04:04:13;99323.56;;;9.87;100.00
30598;BME280;17365;48.878;8.334;2022-09-30T04:06:38;99325.19;;;9.95;100.00
30598;BME280;17365;48.878;8.334;2022-09-30T04:09:03;99318.31;;;9.93;100.00
30598;BME280;17365;48.878;8.334;2022-09-30T04:11:29;99323.50;;;9.93;100.00
30598;BME280;17365;48.878;8.334;2022-09-30T04:13:54;99323.50;;;9.93;100.00
30598;BME280;17365;48.878;8.334;2022-09-30T04:16:19;99327.03;;;9.86;100.00
30598;BME280;17365;48.878;8.334;2022-09-30T04:18:45;99328.66;;;9.93;100.00
30598;BME280;17365;48.878;8.334;2022-09-30T04:21:12;99329.81;;;9.56;100.00
30598;BME280;17365;48.878;8.334;2022-09-30T04:23:38;99338.38;;;9.69;100.00
30598;BME280;17365;48.878;8.334;2022-09-30T04:26:05;99345.22;;;9.76;100.00
30598;BME280;17365;48.878;8.334;2022-09-30T04:28:32;99342.56;;;9.86;100.00
30598;BME280;17365;48.878;8.334;2022-09-30T04:30:59;99347.81;;;9.77;100.00
30598;BME280;17365;48.878;8.334;2022-09-30T04:33:24;99340.84;;;9.87;100.00
30598;BME280;17365;48.878;8.334;2022-09-30T04:35:54;99346.00;;;9.87;100.00
30598;BME280;17365;48.878;8.334;2022-09-30T04:38:19;99339.91;;;9.92;100.00
30598;BME280;17365;48.878;8.334;2022-09-30T04:40:44;99347.66;;;9.96;100.00
30598;BME280;17365;48.878;8.334;2022-09-30T04:43:10;99344.19;;;10.00;100.00
30598;BME280;17365;48.878;8.334;2022-09-30T04:45:35;99351.13;;;9.98;100.00
30598;BME280;17365;48.878;8.334;2022-09-30T04:48:00;99352.94;;;9.86;100.00
30598;BME280;17365;48.878;8.334;2022-09-30T04:50:25;99345.19;;;9.80;100.00
30598;BME280;17365;48.878;8.334;2022-09-30T04:52:51;99359.91;;;9.77;100.00
30598;BME280;17365;48.878;8.334;2022-09-30T04:55:16;99361.81;;;9.52;100.00
30598;BME280;17365;48.878;8.334;2022-09-30T04:57:45;99358.34;;;9.53;100.00
30598;BME280;17365;48.878;8.334;2022-09-30T05:00:10;99362.59;;;9.63;100.00
30598;BME280;17365;48.878;8.334;2022-09-30T05:02:36;99366.97;;;9.53;100.00
30598;BME280;17365;48.878;8.334;2022-09-30T05:05:01;99367.94;;;9.28;100.00
30598;BME280;17365;48.878;8.334;2022-09-30T05:07:29;99361.78;;;9.49;100.00
30598;BME280;17365;48.878;8.334;2022-09-30T05:09:55;99363.53;;;9.51;100.00
30598;BME280;17365;48.878;8.334;2022-09-30T05:12:20;99365.25;;;9.46;100.00
30598;BME280;17365;48.878;8.334;2022-09-30T05:14:45;99367.06;;;9.32;100.00
30598;BME280;17365;48.878;8.334;2022-09-30T05:17:11;99367.94;;;9.28;100.00
30598;BME280;17365;48.878;8.334;2022-09-30T05:19:36;99366.19;;;9.34;100.00
30598;BME280;17365;48.878;8.334;2022-09-30T05:22:01;99364.41;;;9.44;100.00
30598;BME280;17365;48.878;8.334;2022-09-30T05:24:27;99373.94;;;9.41;100.00
30598;BME280;17365;48.878;8.334;2022-09-30T05:26:54;99384.34;;;9.30;100.00
30598;BME280;17365;48.878;8.334;2022-09-30T05:29:19;99389.50;;;9.34;100.00
30598;BME280;17365;48.878;8.334;2022-09-30T05:31:44;99392.03;;;9.44;100.00
30598;BME280;17365;48.878;8.334;2022-09-30T05:34:10;99391.13;;;9.51;100.00
30598;BME280;17365;48.878;8.334;2022-09-30T05:36:35;99392.00;;;9.53;100.00
30598;BME280;17365;48.878;8.334;2022-09-30T05:39:00;99399.75;;;9.54;100.00
30598;BME280;17365;48.878;8.334;2022-09-30T05:41:26;99404.94;;;9.54;100.00
30598;BME280;17365;48.878;8.334;2022-09-30T05:43:51;99400.63;;;9.52;100.00
30598;BME280;17365;48.878;8.334;2022-09-30T05:46:18;99406.66;;;9.51;100.00
30598;BME280;17365;48.878;8.334;2022-09-30T05:48:44;99411.78;;;9.58;100.00
30598;BME280;17365;48.878;8.334;2022-09-30T05:51:10;99416.09;;;9.61;100.00
30598;BME280;17365;48.878;8.334;2022-09-30T05:53:37;99423.00;;;9.60;100.00
30598;BME280;17365;48.878;8.334;2022-09-30T05:56:04;99428.19;;;9.59;100.00
30598;BME280;17365;48.878;8.334;2022-09-30T05:58:29;99423.00;;;9.65;100.00
30598;BME280;17365;48.878;8.334;2022-09-30T06:00:55;99425.63;;;9.57;100.00
30598;BME280;17365;48.878;8.334;2022-09-30T06:03:21;99427.31;;;9.66;100.00
30598;BME280;17365;48.878;8.334;2022-09-30T06:05:46;99436.78;;;9.67;100.00
30598;BME280;17365;48.878;8.334;2022-09-30T06:08:13;99440.22;;;9.71;100.00
30598;BME280;17365;48.878;8.334;2022-09-30T06:10:40;99441.88;;;9.87;100.00
30598;BME280;17365;48.878;8.334;2022-09-30T06:13:06;99449.59;;;9.91;100.00
30598;BME280;17365;48.878;8.334;2022-09-30T06:15:31;99456.47;;;9.94;100.00
30598;BME280;17365;48.878;8.334;2022-09-30T06:17:56;99459.88;;;10.04;100.00
30598;BME280;17365;48.878;8.334;2022-09-30T06:20:22;99468.50;;;10.09;100.00
30598;BME280;17365;48.878;8.334;2022-09-30T06:22:48;99466.84;;;9.94;100.00
30598;BME280;17365;48.878;8.334;2022-09-30T06:25:13;99472.91;;;9.91;100.00
30598;BME280;17365;48.878;8.334;2022-09-30T06:27:38;99470.22;;;10.05;100.00
30598;BME280;17365;48.878;8.334;2022-09-30T06:30:07;99478.00;;;10.07;100.00
30598;BME280;17365;48.878;8.334;2022-09-30T06:32:33;99477.16;;;10.02;100.00
30598;BME280;17365;48.878;8.334;2022-09-30T06:34:58;99484.00;;;10.13;100.00
30598;BME280;17365;48.878;8.334;2022-09-30T06:37:24;99483.09;;;10.24;100.00
30598;BME280;17365;48.878;8.334;2022-09-30T06:39:49;99492.53;;;10.34;100.00
30598;BME280;17365;48.878;8.334;2022-09-30T06:42:18;99488.16;;;10.40;100.00
30598;BME280;17365;48.878;8.334;2022-09-30T06:44:44;99493.31;;;10.46;100.00
30598;BME280;17365;48.878;8.334;2022-09-30T06:47:10;99502.00;;;10.39;100.00
30598;BME280;17365;48.878;8.334;2022-09-30T06:49:35;99501.97;;;10.45;100.00
30598;BME280;17365;48.878;8.334;2022-09-30T06:52:00;99508.81;;;10.51;100.00
30598;BME280;17365;48.878;8.334;2022-09-30T06:54:26;99504.50;;;10.55;100.00
30598;BME280;17365;48.878;8.334;2022-09-30T06:56:55;99505.44;;;10.44;100.00
30598;BME280;17365;48.878;8.334;2022-09-30T06:59:25;99505.63;;;10.11;100.00
30598;BME280;17365;48.878;8.334;2022-09-30T07:01:51;99503.81;;;10.27;100.00
30598;BME280;17365;48.878;8.334;2022-09-30T07:04:17;99502.97;;;10.18;100.00
30598;BME280;17365;48.878;8.334;2022-09-30T07:06:43;99506.41;;;10.27;100.00
30598;BME280;17365;48.878;8.334;2022-09-30T07:09:09;99509.00;;;10.25;100.00
30598;BME280;17365;48.878;8.334;2022-09-30T07:11:35;99502.84;;;10.40;100.00
30598;BME280;17365;48.878;8.334;2022-09-30T07:14:01;99507.41;;;9.95;100.00
30598;BME280;17365;48.878;8.334;2022-09-30T07:16:28;99507.44;;;9.92;100.00
30598;BME280;17365;48.878;8.334;2022-09-30T07:18:55;99510.84;;;10.03;100.00
30598;BME280;17365;48.878;8.334;2022-09-30T07:21:20;99514.19;;;10.25;100.00
30598;BME280;17365;48.878;8.334;2022-09-30T07:23:45;99515.00;;;10.30;100.00
30598;BME280;17365;48.878;8.334;2022-09-30T07:26:19;99515.81;;;10.44;100.00
30598;BME280;17365;48.878;8.334;2022-09-30T07:28:44;99519.09;;;10.65;100.00
30598;BME280;17365;48.878;8.334;2022-09-30T07:31:13;99521.66;;;10.68;100.00
30598;BME280;17365;48.878;8.334;2022-09-30T07:33:41;99519.88;;;10.76;100.00
30598;BME280;17365;48.878;8.334;2022-09-30T07:36:06;99528.59;;;10.67;100.00
30598;BME280;17365;48.878;8.334;2022-09-30T07:38:34;99534.50;;;10.83;100.00
30598;BME280;17365;48.878;8.334;2022-09-30T07:41:06;99527.56;;;10.88;100.00
30598;BME280;17365;48.878;8.334;2022-09-30T07:43:33;99538.16;;;10.61;100.00
30598;BME280;17365;48.878;8.334;2022-09-30T07:46:10;99537.41;;;10.40;100.00
30598;BME280;17365;48.878;8.334;2022-09-30T07:48:37;99548.78;;;10.15;100.00
30598;BME280;17365;48.878;8.334;2022-09-30T07:51:14;99544.38;;;10.37;100.00
30598;BME280;17365;48.878;8.334;2022-09-30T07:53:41;99546.75;;;10.66;100.00
30598;BME280;17365;48.878;8.334;2022-09-30T07:56:08;99555.41;;;10.66;100.00
30598;BME280;17365;48.878;8.334;2022-09-30T07:58:34;99554.53;;;10.64;100.00
30598;BME280;17365;48.878;8.334;2022-09-30T08:00:59;99564.81;;;10.79;100.00
30598;BME280;17365;48.878;8.334;2022-09-30T08:03:25;99564.06;;;10.65;100.00
30598;BME280;17365;48.878;8.334;2022-09-30T08:05:51;99574.19;;;10.94;100.00
30598;BME280;17365;48.878;8.334;2022-09-30T08:08:17;99572.44;;;10.96;100.00
30598;BME280;17365;48.878;8.334;2022-09-30T08:10:42;99573.13;;;11.17;100.00
30598;BME280;17365;48.878;8.334;2022-09-30T08:13:08;99581.59;;;10.16;100.00
30598;BME280;17365;48.878;8.334;2022-09-30T08:15:34;99586.41;;;10.83;100.00
30598;BME280;17365;48.878;8.334;2022-09-30T08:17:59;99587.72;;;11.30;100.00
30598;BME280;17365;48.878;8.334;2022-09-30T08:20:25;99586.69;;;11.48;100.00
30598;BME280;17365;48.878;8.334;2022-09-30T08:22:54;99592.00;;;11.32;100.00
30598;BME280;17365;48.878;8.334;2022-09-30T08:25:20;99587.59;;;11.42;100.00
30598;BME280;17365;48.878;8.334;2022-09-30T08:27:46;99587.50;;;11.51;100.00
30598;BME280;17365;48.878;8.334;2022-09-30T08:30:11;99599.69;;;11.46;100.00
30598;BME280;17365;48.878;8.334;2022-09-30T08:32:37;99603.09;;;11.51;100.00
30598;BME280;17365;48.878;8.334;2022-09-30T08:35:03;99597.97;;;11.42;100.00
30598;BME280;17365;48.878;8.334;2022-09-30T08:37:28;99615.28;;;11.45;100.00
30598;BME280;17365;48.878;8.334;2022-09-30T08:39:53;99617.91;;;11.45;100.00
30598;BME280;17365;48.878;8.334;2022-09-30T08:48:30;99621.41;;;11.37;100.00
30598;BME280;17365;48.878;8.334;2022-09-30T08:53:34;99628.78;;;11.83;99.06
30598;BME280;17365;48.878;8.334;2022-09-30T08:56:02;99629.97;;;11.49;100.00
30598;BME280;17365;48.878;8.334;2022-09-30T08:58:31;99633.81;;;11.95;98.00
30598;BME280;17365;48.878;8.334;2022-09-30T09:01:03;99632.81;;;12.07;96.32
30598;BME280;17365;48.878;8.334;2022-09-30T09:03:32;99631.97;;;12.05;96.41
30598;BME280;17365;48.878;8.334;2022-09-30T09:06:10;99635.75;;;11.74;97.64
30598;BME280;17365;48.878;8.334;2022-09-30T09:11:31;99637.69;;;12.33;94.78
30598;BME280;17365;48.878;8.334;2022-09-30T09:14:05;99640.75;;;12.64;93.54
30598;BME280;17365;48.878;8.334;2022-09-30T09:16:54;99637.84;;;12.84;91.92
30598;BME280;17365;48.878;8.334;2022-09-30T09:19:25;99635.81;;;12.46;92.83
30598;BME280;17365;48.878;8.334;2022-09-30T09:21:56;99635.47;;;12.67;92.90
30598;BME280;17365;48.878;8.334;2022-09-30T09:26:57;99628.19;;;12.91;92.63
30598;BME280;17365;48.878;8.334;2022-09-30T09:32:16;99621.94;;;13.04;90.15
30598;BME280;17365;48.878;8.334;2022-09-30T09:34:42;99615.63;;;13.19;89.82
30598;BME280;17365;48.878;8.334;2022-09-30T09:40:02;99618.72;;;12.87;91.37
30598;BME280;17365;48.878;8.334;2022-09-30T09:42:57;99613.06;;;13.16;89.25
30598;BME280;17365;48.878;8.334;2022-09-30T09:47:55;99616.41;;;13.25;89.88
30598;BME280;17365;48.878;8.334;2022-09-30T09:53:23;99611.59;;;13.52;88.21
30598;BME280;17365;48.878;8.334;2022-09-30T09:55:54;99618.28;;;13.65;85.93
30598;BME280;17365;48.878;8.334;2022-09-30T09:58:23;99613.78;;;14.18;84.99
30598;BME280;17365;48.878;8.334;2022-09-30T10:00:49;99630.53;;;14.48;83.56
30598;BME280;17365;48.878;8.334;2022-09-30T10:03:25;99621.66;;;13.72;85.02
30598;BME280;17365;48.878;8.334;2022-09-30T10:06:02;99625.00;;;13.77;85.23
30598;BME280;17365;48.878;8.334;2022-09-30T10:08:31;99623.38;;;13.73;85.41
30598;BME280;17365;48.878;8.334;2022-09-30T10:10:59;99627.03;;;13.62;86.76
30598;BME280;17365;48.878;8.334;2022-09-30T10:13:45;99626.44;;;13.93;85.82
30598;BME280;17365;48.878;8.334;2022-09-30T10:16:30;99620.78;;;13.69;85.59
30598;BME280;17365;48.878;8.334;2022-09-30T10:18:57;99629.13;;;13.42;87.91
30598;BME280;17365;48.878;8.334;2022-09-30T10:21:25;99629.88;;;13.47;86.95
30598;BME280;17365;48.878;8.334;2022-09-30T10:23:52;99629.69;;;13.59;86.14
30598;BME280;17365;48.878;8.334;2022-09-30T10:26:23;99630.69;;;13.52;87.36
30598;BME280;17365;48.878;8.334;2022-09-30T10:28:54;99628.22;;;13.45;87.22
30598;BME280;17365;48.878;8.334;2022-09-30T10:31:23;99635.34;;;13.83;85.22
30598;BME280;17365;48.878;8.334;2022-09-30T10:33:56;99634.66;;;13.73;86.36
30598;BME280;17365;48.878;8.334;2022-09-30T10:36:30;99637.00;;;13.87;84.40
30598;BME280;17365;48.878;8.334;2022-09-30T10:39:26;99624.88;;;14.26;83.18
30598;BME280;17365;48.878;8.334;2022-09-30T10:44:55;99625.84;;;14.22;82.54
30598;BME280;17365;48.878;8.334;2022-09-30T10:47:23;99626.00;;;14.14;83.26
30598;BME280;17365;48.878;8.334;2022-09-30T10:52:23;99633.09;;;13.63;84.96
30598;BME280;17365;48.878;8.334;2022-09-30T10:54:55;99632.06;;;14.16;84.28
30598;BME280;17365;48.878;8.334;2022-09-30T10:57:35;99633.00;;;14.55;82.65
30598;BME280;17365;48.878;8.334;2022-09-30T11:00:13;99628.69;;;14.92;81.63
30598;BME280;17365;48.878;8.334;2022-09-30T11:02:43;99627.00;;;14.89;80.85
30598;BME280;17365;48.878;8.334;2022-09-30T11:07:46;99623.13;;;15.05;79.80
30598;BME280;17365;48.878;8.334;2022-09-30T11:10:38;99624.69;;;15.12;78.77
30598;BME280;17365;48.878;8.334;2022-09-30T11:13:14;99634.94;;;15.22;79.25
30598;BME280;17365;48.878;8.334;2022-09-30T11:16:05;99623.84;;;15.12;79.17
30598;BME280;17365;48.878;8.334;2022-09-30T11:18:44;99625.13;;;14.57;81.63
30598;BME280;17365;48.878;8.334;2022-09-30T11:21:16;99622.38;;;14.21;83.80
30598;BME280;17365;48.878;8.334;2022-09-30T11:23:47;99622.88;;;14.79;82.01
30598;BME280;17365;48.878;8.334;2022-09-30T11:26:44;99618.06;;;14.99;80.88
30598;BME280;17365;48.878;8.334;2022-09-30T11:40:40;99623.56;;;15.23;81.28
30598;BME280;17365;48.878;8.334;2022-09-30T11:43:25;99621.59;;;15.32;80.37
30598;BME280;17365;48.878;8.334;2022-09-30T11:46:17;99624.28;;;15.29;80.21
30598;BME280;17365;48.878;8.334;2022-09-30T11:57:06;99619.56;;;15.09;81.70
30598;BME280;17365;48.878;8.334;2022-09-30T11:59:40;99625.06;;;14.97;81.13
30598;BME280;17365;48.878;8.334;2022-09-30T12:02:30;99617.81;;;15.44;79.08
30598;BME280;17365;48.878;8.334;2022-09-30T12:05:11;99617.94;;;15.38;79.61
30598;BME280;17365;48.878;8.334;2022-09-30T12:07:43;99618.09;;;15.33;78.30
30598;BME280;17365;48.878;8.334;2022-09-30T12:10:23;99620.84;;;15.61;78.03
30598;BME280;17365;48.878;8.334;2022-09-30T12:12:55;99612.63;;;15.42;78.23
30598;BME280;17365;48.878;8.334;2022-09-30T12:15:23;99617.06;;;15.03;80.34
30598;BME280;17365;48.878;8.334;2022-09-30T12:17:57;99614.69;;;15.30;77.51
30598;BME280;17365;48.878;8.334;2022-09-30T12:20:29;99609.44;;;15.31;77.36
30598;BME280;17365;48.878;8.334;2022-09-30T12:23:15;99616.31;;;15.68;76.68
30598;BME280;17365;48.878;8.334;2022-09-30T12:25:56;99628.06;;;15.86;75.62
30598;BME280;17365;48.878;8.334;2022-09-30T12:28:35;99625.47;;;15.50;76.66
30598;BME280;17365;48.878;8.334;2022-09-30T12:36:47;99622.38;;;16.01;74.11
30598;BME280;17365;48.878;8.334;2022-09-30T12:47:50;99618.50;;;15.83;74.93
30598;BME280;17365;48.878;8.334;2022-09-30T12:50:21;99623.78;;;15.82;73.00
30598;BME280;17365;48.878;8.334;2022-09-30T12:52:48;99623.22;;;16.33;72.65
30598;BME280;17365;48.878;8.334;2022-09-30T12:55:28;99624.31;;;16.55;71.64
30598;BME280;17365;48.878;8.334;2022-09-30T12:57:57;99618.97;;;15.99;72.21
30598;BME280;17365;48.878;8.334;2022-09-30T13:00:28;99622.75;;;15.89;71.57
30598;BME280;17365;48.878;8.334;2022-09-30T13:03:18;99626.97;;;16.24;72.21
30598;BME280;17365;48.878;8.334;2022-09-30T13:05:49;99629.88;;;16.13;72.44
30598;BME280;17365;48.878;8.334;2022-09-30T13:10:45;99632.06;;;16.28;70.06
30598;BME280;17365;48.878;8.334;2022-09-30T13:15:41;99631.13;;;15.69;71.11
30598;BME280;17365;48.878;8.334;2022-09-30T13:21:17;99636.53;;;15.94;70.69
30598;BME280;17365;48.878;8.334;2022-09-30T13:23:51;99645.09;;;16.00;69.38
30598;BME280;17365;48.878;8.334;2022-09-30T13:28:50;99637.53;;;16.21;70.07
30598;BME280;17365;48.878;8.334;2022-09-30T13:31:21;99638.56;;;16.45;67.98
30598;BME280;17365;48.878;8.334;2022-09-30T13:36:57;99640.38;;;16.43;66.72
30598;BME280;17365;48.878;8.334;2022-09-30T13:39:29;99638.25;;;16.55;66.62
30598;BME280;17365;48.878;8.334;2022-09-30T13:45:00;99644.72;;;16.73;62.89
30598;BME280;17365;48.878;8.334;2022-09-30T13:47:32;99644.53;;;16.79;64.70
30598;BME280;17365;48.878;8.334;2022-09-30T13:50:12;99649.28;;;16.95;64.08
30598;BME280;17365;48.878;8.334;2022-09-30T13:52:39;99640.28;;;17.30;61.17
30598;BME280;17365;48.878;8.334;2022-09-30T13:55:36;99643.81;;;17.02;61.50
30598;BME280;17365;48.878;8.334;2022-09-30T14:01:34;99638.31;;;17.10;61.17
30598;BME280;17365;48.878;8.334;2022-09-30T14:09:47;99636.97;;;17.25;62.28
30598;BME280;17365;48.878;8.334;2022-09-30T14:21:04;99640.56;;;17.22;62.72
30598;BME280;17365;48.878;8.334;2022-09-30T14:23:35;99637.41;;;17.11;63.43
30598;BME280;17365;48.878;8.334;2022-09-30T14:29:03;99637.28;;;16.58;64.04
30598;BME280;17365;48.878;8.334;2022-09-30T14:31:30;99635.69;;;16.52;63.04
30598;BME280;17365;48.878;8.334;2022-09-30T14:33:56;99632.91;;;16.58;63.37
30598;BME280;17365;48.878;8.334;2022-09-30T14:36:22;99634.00;;;16.51;64.58
30598;BME280;17365;48.878;8.334;2022-09-30T14:38:52;99624.69;;;16.41;65.51
30598;BME280;17365;48.878;8.334;2022-09-30T14:41:20;99629.00;;;16.44;65.73
30598;BME280;17365;48.878;8.334;2022-09-30T14:43:49;99634.50;;;16.35;65.80
30598;BME280;17365;48.878;8.334;2022-09-30T14:46:24;99633.88;;;16.26;65.52
30598;BME280;17365;48.878;8.334;2022-09-30T14:48:53;99631.13;;;16.31;65.24
30598;BME280;17365;48.878;8.334;2022-09-30T14:51:21;99632.75;;;16.04;65.70
30598;BME280;17365;48.878;8.334;2022-09-30T14:53:56;99627.38;;;16.10;65.18
30598;BME280;17365;48.878;8.334;2022-09-30T14:56:29;99630.25;;;16.30;64.90
30598;BME280;17365;48.878;8.334;2022-09-30T14:58:56;99631.03;;;16.34;64.72
30598;BME280;17365;48.878;8.334;2022-09-30T15:01:24;99633.50;;;16.39;65.23
30598;BME280;17365;48.878;8.334;2022-09-30T15:03:57;99634.16;;;16.47;65.40
30598;BME280;17365;48.878;8.334;2022-09-30T15:06:29;99633.09;;;16.52;65.48
30598;BME280;17365;48.878;8.334;2022-09-30T15:09:05;99635.84;;;16.48;65.32
30598;BME280;17365;48.878;8.334;2022-09-30T15:11:33;99628.69;;;16.53;65.66
30598;BME280;17365;48.878;8.334;2022-09-30T15:14:05;99633.94;;;16.53;65.71
30598;BME280;17365;48.878;8.334;2022-09-30T15:16:32;99633.56;;;16.37;65.77
30598;BME280;17365;48.878;8.334;2022-09-30T15:18:58;99631.63;;;16.44;65.26
30598;BME280;17365;48.878;8.334;2022-09-30T15:21:25;99630.19;;;16.62;64.56
30598;BME280;17365;48.878;8.334;2022-09-30T15:23:54;99631.06;;;16.62;64.26
30598;BME280;17365;48.878;8.334;2022-09-30T15:26:22;99627.09;;;16.49;62.65
30598;BME280;17365;48.878;8.334;2022-09-30T15:28:48;99630.25;;;16.60;62.06
30598;BME280;17365;48.878;8.334;2022-09-30T15:31:21;99623.34;;;16.57;61.87
30598;BME280;17365;48.878;8.334;2022-09-30T15:33:46;99634.63;;;16.59;62.09
30598;BME280;17365;48.878;8.334;2022-09-30T15:36:15;99628.41;;;16.34;62.29